sensor_id;sensor_type;location;lat;lon;timestamp;temperature;humidity
35027;DHT22;60696;51.426;6.934;2022-12-20T00:00:22;10.90;99.90
35027;DHT22;60696;51.426;6.934;2022-12-20T00:02:48;10.90;99.90
35027;DHT22;60696;51.426;6.934;2022-12-20T00:05:13;11.00;99.90
35027;DHT22;60696;51.426;6.934;2022-12-20T00:07:39;10.90;99.90
35027;DHT22;60696;51.426;6.934;2022-12-20T00:10:05;10.90;99.90
35027;DHT22;60696;51.426;6.934;2022-12-20T00:12:31;10.90;99.90
35027;DHT22;60696;51.426;6.934;2022-12-20T00:14:57;10.90;99.90
35027;DHT22;60696;51.426;6.934;2022-12-20T00:17:22;10.90;99.90
35027;DHT22;60696;51.426;6.934;2022-12-20T00:19:48;10.90;99.90
35027;DHT22;60696;51.426;6.934;2022-12-20T00:22:13;10.90;99.90
35027;DHT22;60696;51.426;6.934;2022-12-20T00:24:39;10.80;99.90
35027;DHT22;60696;51.426;6.934;2022-12-20T00:27:04;10.80;99.90
35027;DHT22;60696;51.426;6.934;2022-12-20T00:29:30;10.90;99.90
35027;DHT22;60696;51.426;6.934;2022-12-20T00:31:56;10.90;99.90
35027;DHT22;60696;51.426;6.934;2022-12-20T00:34:21;10.80;99.90
35027;DHT22;60696;51.426;6.934;2022-12-20T00:36:47;10.80;99.90
35027;DHT22;60696;51.426;6.934;2022-12-20T00:39:12;10.80;99.90
35027;DHT22;60696;51.426;6.934;2022-12-20T00:41:38;10.80;99.90
35027;DHT22;60696;51.426;6.934;2022-12-20T00:44:04;10.70;99.90
35027;DHT22;60696;51.426;6.934;2022-12-20T00:46:30;10.70;99.90
35027;DHT22;60696;51.426;6.934;2022-12-20T00:48:56;10.70;99.90
35027;DHT22;60696;51.426;6.934;2022-12-20T00:51:27;10.80;99.90
35027;DHT22;60696;51.426;6.934;2022-12-20T00:53:54;10.80;99.90
35027;DHT22;60696;51.426;6.934;2022-12-20T00:56:22;10.80;99.90
35027;DHT22;60696;51.426;6.934;2022-12-20T00:58:48;10.80;99.90
35027;DHT22;60696;51.426;6.934;2022-12-20T01:01:24;10.80;99.90
35027;DHT22;60696;51.426;6.934;2022-12-20T01:03:51;10.70;99.90
35027;DHT22;60696;51.426;6.934;2022-12-20T01:06:18;10.80;99.90
35027;DHT22;60696;51.426;6.934;2022-12-20T01:08:44;10.70;99.90
35027;DHT22;60696;51.426;6.934;2022-12-20T01:11:15;10.80;99.90
35027;DHT22;60696;51.426;6.934;2022-12-20T01:13:48;10.80;99.90
35027;DHT22;60696;51.426;6.934;2022-12-20T01:16:35;10.80;99.90
35027;DHT22;60696;51.426;6.934;2022-12-20T01:19:01;10.80;99.90
35027;DHT22;60696;51.426;6.934;2022-12-20T01:21:27;10.80;99.90
35027;DHT22;60696;51.426;6.934;2022-12-20T01:23:53;10.90;99.90
35027;DHT22;60696;51.426;6.934;2022-12-20T01:26:20;10.90;99.90
35027;DHT22;60696;51.426;6.934;2022-12-20T01:28:47;11.00;99.90
35027;DHT22;60696;51.426;6.934;2022-12-20T01:31:16;10.90;99.90
35027;DHT22;60696;51.426;6.934;2022-12-20T01:33:42;11.00;99.90
35027;DHT22;60696;51.426;6.934;2022-12-20T01:36:25;11.10;99.90
35027;DHT22;60696;51.426;6.934;2022-12-20T01:38:58;11.00;99.90
35027;DHT22;60696;51.426;6.934;2022-12-20T01:41:26;10.90;99.90
35027;DHT22;60696;51.426;6.934;2022-12-20T01:43:56;11.00;99.90
35027;DHT22;60696;51.426;6.934;2022-12-20T01:46:27;11.00;99.90
35027;DHT22;60696;51.426;6.934;2022-12-20T01:51:31;11.00;99.90
35027;DHT22;60696;51.426;6.934;2022-12-20T01:54:10;11.00;99.90
35027;DHT22;60696;51.426;6.934;2022-12-20T01:56:38;11.00;99.90
35027;DHT22;60696;51.426;6.934;2022-12-20T01:59:05;11.00;99.90
35027;DHT22;60696;51.426;6.934;2022-12-20T02:01:32;11.00;99.90
35027;DHT22;60696;51.426;6.934;2022-12-20T02:03:58;11.00;99.90
35027;DHT22;60696;51.426;6.934;2022-12-20T02:06:25;11.00;99.90
35027;DHT22;60696;51.426;6.934;2022-12-20T02:08:55;10.90;99.90
35027;DHT22;60696;51.426;6.934;2022-12-20T02:11:37;10.90;99.90
35027;DHT22;60696;51.426;6.934;2022-12-20T02:14:35;10.80;99.90
35027;DHT22;60696;51.426;6.934;2022-12-20T02:17:10;10.80;99.90
35027;DHT22;60696;51.426;6.934;2022-12-20T02:19:46;10.80;99.90
35027;DHT22;60696;51.426;6.934;2022-12-20T02:25:17;10.90;99.90
35027;DHT22;60696;51.426;6.934;2022-12-20T02:30:30;10.80;99.90
35027;DHT22;60696;51.426;6.934;2022-12-20T02:33:03;10.80;99.90
35027;DHT22;60696;51.426;6.934;2022-12-20T02:35:30;10.70;99.90
35027;DHT22;60696;51.426;6.934;2022-12-20T02:37:59;10.70;99.90
35027;DHT22;60696;51.426;6.934;2022-12-20T02:40:29;10.70;99.90
35027;DHT22;60696;51.426;6.934;2022-12-20T02:43:02;10.70;99.90
35027;DHT22;60696;51.426;6.934;2022-12-20T02:45:32;10.70;99.90
35027;DHT22;60696;51.426;6.934;2022-12-20T02:48:07;10.70;99.90
35027;DHT22;60696;51.426;6.934;2022-12-20T02:50:46;10.60;99.90
35027;DHT22;60696;51.426;6.934;2022-12-20T02:53:14;10.60;99.90
35027;DHT22;60696;51.426;6.934;2022-12-20T02:55:42;10.40;99.90
35027;DHT22;60696;51.426;6.934;2022-12-20T03:00:55;10.40;99.90
35027;DHT22;60696;51.426;6.934;2022-12-20T03:03:22;10.40;99.90
35027;DHT22;60696;51.426;6.934;2022-12-20T03:05:53;10.30;99.90
35027;DHT22;60696;51.426;6.934;2022-12-20T03:08:20;10.30;99.90
35027;DHT22;60696;51.426;6.934;2022-12-20T03:10:46;10.30;99.90
35027;DHT22;60696;51.426;6.934;2022-12-20T03:13:12;10.20;99.90
35027;DHT22;60696;51.426;6.934;2022-12-20T03:15:37;10.20;99.90
35027;DHT22;60696;51.426;6.934;2022-12-20T03:18:03;10.10;99.90
35027;DHT22;60696;51.426;6.934;2022-12-20T03:20:29;10.10;99.90
35027;DHT22;60696;51.426;6.934;2022-12-20T03:22:55;10.00;99.90
35027;DHT22;60696;51.426;6.934;2022-12-20T03:25:20;10.00;99.90
35027;DHT22;60696;51.426;6.934;2022-12-20T03:27:46;10.00;99.90
35027;DHT22;60696;51.426;6.934;2022-12-20T03:30:12;9.90;99.90
35027;DHT22;60696;51.426;6.934;2022-12-20T03:32:38;9.90;99.90
35027;DHT22;60696;51.426;6.934;2022-12-20T03:35:04;9.80;99.90
35027;DHT22;60696;51.426;6.934;2022-12-20T03:37:30;9.70;99.90
35027;DHT22;60696;51.426;6.934;2022-12-20T03:39:55;9.70;99.90
35027;DHT22;60696;51.426;6.934;2022-12-20T03:42:21;9.70;99.90
35027;DHT22;60696;51.426;6.934;2022-12-20T03:44:46;9.80;99.90
35027;DHT22;60696;51.426;6.934;2022-12-20T03:47:12;9.70;99.90
35027;DHT22;60696;51.426;6.934;2022-12-20T03:49:38;9.80;99.90
35027;DHT22;60696;51.426;6.934;2022-12-20T03:52:04;9.70;99.90
35027;DHT22;60696;51.426;6.934;2022-12-20T03:54:29;9.70;99.90
35027;DHT22;60696;51.426;6.934;2022-12-20T03:56:55;9.70;99.90
35027;DHT22;60696;51.426;6.934;2022-12-20T03:59:20;9.80;99.90
35027;DHT22;60696;51.426;6.934;2022-12-20T04:01:46;9.80;99.90
35027;DHT22;60696;51.426;6.934;2022-12-20T04:04:13;9.80;99.90
35027;DHT22;60696;51.426;6.934;2022-12-20T04:06:39;9.80;99.90
35027;DHT22;60696;51.426;6.934;2022-12-20T04:09:05;9.90;99.90
35027;DHT22;60696;51.426;6.934;2022-12-20T04:11:31;9.90;99.90
35027;DHT22;60696;51.426;6.934;2022-12-20T04:13:56;9.90;99.90
35027;DHT22;60696;51.426;6.934;2022-12-20T04:16:24;9.80;99.90
35027;DHT22;60696;51.426;6.934;2022-12-20T04:18:51;9.80;99.90
35027;DHT22;60696;51.426;6.934;2022-12-20T04:21:30;9.90;99.90
35027;DHT22;60696;51.426;6.934;2022-12-20T04:23:56;9.90;99.90
35027;DHT22;60696;51.426;6.934;2022-12-20T04:26:22;9.80;99.90
35027;DHT22;60696;51.426;6.934;2022-12-20T04:28:48;9.80;99.90
35027;DHT22;60696;51.426;6.934;2022-12-20T04:31:14;9.80;99.90
35027;DHT22;60696;51.426;6.934;2022-12-20T04:33:39;9.90;99.90
35027;DHT22;60696;51.426;6.934;2022-12-20T04:36:05;9.90;99.90
35027;DHT22;60696;51.426;6.934;2022-12-20T04:38:32;9.90;99.90
35027;DHT22;60696;51.426;6.934;2022-12-20T04:40:57;9.90;99.90
35027;DHT22;60696;51.426;6.934;2022-12-20T04:43:24;9.90;99.90
35027;DHT22;60696;51.426;6.934;2022-12-20T04:45:52;9.90;99.90
35027;DHT22;60696;51.426;6.934;2022-12-20T04:48:18;9.90;99.90
35027;DHT22;60696;51.426;6.934;2022-12-20T04:50:48;9.80;99.90
35027;DHT22;60696;51.426;6.934;2022-12-20T04:53:14;9.80;99.90
35027;DHT22;60696;51.426;6.934;2022-12-20T04:55:58;9.80;99.90
35027;DHT22;60696;51.426;6.934;2022-12-20T04:58:24;9.80;99.90
35027;DHT22;60696;51.426;6.934;2022-12-20T05:00:50;9.80;99.90
35027;DHT22;60696;51.426;6.934;2022-12-20T05:03:20;9.80;99.90
35027;DHT22;60696;51.426;6.934;2022-12-20T05:05:47;9.80;99.90
35027;DHT22;60696;51.426;6.934;2022-12-20T05:08:13;9.80;99.90
35027;DHT22;60696;51.426;6.934;2022-12-20T05:10:38;9.70;99.90
35027;DHT22;60696;51.426;6.934;2022-12-20T05:13:04;9.80;99.90
35027;DHT22;60696;51.426;6.934;2022-12-20T05:15:30;9.80;99.90
35027;DHT22;60696;51.426;6.934;2022-12-20T05:17:56;9.80;99.90
35027;DHT22;60696;51.426;6.934;2022-12-20T05:20:27;9.70;99.90
35027;DHT22;60696;51.426;6.934;2022-12-20T05:22:53;9.80;99.90
35027;DHT22;60696;51.426;6.934;2022-12-20T05:25:40;9.70;99.90
35027;DHT22;60696;51.426;6.934;2022-12-20T05:28:25;9.70;99.90
35027;DHT22;60696;51.426;6.934;2022-12-20T05:30:51;9.70;99.90
35027;DHT22;60696;51.426;6.934;2022-12-20T05:33:16;9.70;99.90
35027;DHT22;60696;51.426;6.934;2022-12-20T05:35:42;9.80;99.90
35027;DHT22;60696;51.426;6.934;2022-12-20T05:38:07;9.80;99.90
35027;DHT22;60696;51.426;6.934;2022-12-20T05:40:33;9.80;99.90
35027;DHT22;60696;51.426;6.934;2022-12-20T05:43:00;9.90;99.90
35027;DHT22;60696;51.426;6.934;2022-12-20T05:45:25;9.90;99.90
35027;DHT22;60696;51.426;6.934;2022-12-20T05:47:51;9.90;99.90
35027;DHT22;60696;51.426;6.934;2022-12-20T05:50:17;10.00;99.90
35027;DHT22;60696;51.426;6.934;2022-12-20T05:52:42;10.00;99.90
35027;DHT22;60696;51.426;6.934;2022-12-20T05:55:10;10.00;99.90
35027;DHT22;60696;51.426;6.934;2022-12-20T05:57:36;10.10;99.90
35027;DHT22;60696;51.426;6.934;2022-12-20T06:00:03;10.10;99.90
35027;DHT22;60696;51.426;6.934;2022-12-20T06:02:29;10.10;99.90
35027;DHT22;60696;51.426;6.934;2022-12-20T06:04:54;10.00;99.90
35027;DHT22;60696;51.426;6.934;2022-12-20T06:07:22;10.10;99.90
35027;DHT22;60696;51.426;6.934;2022-12-20T06:09:47;10.10;99.90
35027;DHT22;60696;51.426;6.934;2022-12-20T06:12:13;10.10;99.90
35027;DHT22;60696;51.426;6.934;2022-12-20T06:14:38;10.20;99.90
35027;DHT22;60696;51.426;6.934;2022-12-20T06:17:04;10.20;99.90
35027;DHT22;60696;51.426;6.934;2022-12-20T06:19:30;10.20;99.90
35027;DHT22;60696;51.426;6.934;2022-12-20T06:21:55;10.20;99.90
35027;DHT22;60696;51.426;6.934;2022-12-20T06:24:21;10.20;99.90
35027;DHT22;60696;51.426;6.934;2022-12-20T06:26:50;10.20;99.90
35027;DHT22;60696;51.426;6.934;2022-12-20T06:29:15;10.20;99.90
35027;DHT22;60696;51.426;6.934;2022-12-20T06:31:42;10.20;99.90
35027;DHT22;60696;51.426;6.934;2022-12-20T06:34:08;10.30;99.90
35027;DHT22;60696;51.426;6.934;2022-12-20T06:36:34;10.30;99.90
35027;DHT22;60696;51.426;6.934;2022-12-20T06:39:00;10.40;99.90
35027;DHT22;60696;51.426;6.934;2022-12-20T06:41:25;10.30;99.90
35027;DHT22;60696;51.426;6.934;2022-12-20T06:43:51;10.30;99.90
35027;DHT22;60696;51.426;6.934;2022-12-20T06:46:16;10.30;99.90
35027;DHT22;60696;51.426;6.934;2022-12-20T06:48:42;10.30;99.90
35027;DHT22;60696;51.426;6.934;2022-12-20T06:51:08;10.30;99.90
35027;DHT22;60696;51.426;6.934;2022-12-20T06:53:33;10.40;99.90
35027;DHT22;60696;51.426;6.934;2022-12-20T06:55:59;10.40;99.90
35027;DHT22;60696;51.426;6.934;2022-12-20T06:58:25;10.30;99.90
35027;DHT22;60696;51.426;6.934;2022-12-20T07:00:50;10.30;99.90
35027;DHT22;60696;51.426;6.934;2022-12-20T07:03:16;10.30;99.90
35027;DHT22;60696;51.426;6.934;2022-12-20T07:05:42;10.30;99.90
35027;DHT22;60696;51.426;6.934;2022-12-20T07:08:10;10.40;99.90
35027;DHT22;60696;51.426;6.934;2022-12-20T07:10:36;10.40;99.90
35027;DHT22;60696;51.426;6.934;2022-12-20T07:13:02;10.50;99.90
35027;DHT22;60696;51.426;6.934;2022-12-20T07:15:28;10.50;99.90
35027;DHT22;60696;51.426;6.934;2022-12-20T07:17:53;10.50;99.90
35027;DHT22;60696;51.426;6.934;2022-12-20T07:20:19;10.40;99.90
35027;DHT22;60696;51.426;6.934;2022-12-20T07:22:48;10.40;99.90
35027;DHT22;60696;51.426;6.934;2022-12-20T07:25:13;10.40;99.90
35027;DHT22;60696;51.426;6.934;2022-12-20T07:27:39;10.40;99.90
35027;DHT22;60696;51.426;6.934;2022-12-20T07:30:06;10.50;99.90
35027;DHT22;60696;51.426;6.934;2022-12-20T07:32:31;10.50;99.90
35027;DHT22;60696;51.426;6.934;2022-12-20T07:34:57;10.50;99.90
35027;DHT22;60696;51.426;6.934;2022-12-20T07:37:23;10.40;99.90
35027;DHT22;60696;51.426;6.934;2022-12-20T07:39:48;10.40;99.90
35027;DHT22;60696;51.426;6.934;2022-12-20T07:42:14;10.40;99.90
35027;DHT22;60696;51.426;6.934;2022-12-20T07:44:39;10.40;99.90
35027;DHT22;60696;51.426;6.934;2022-12-20T07:47:05;10.50;99.90
35027;DHT22;60696;51.426;6.934;2022-12-20T07:49:30;10.50;99.90
35027;DHT22;60696;51.426;6.934;2022-12-20T07:51:57;10.50;99.90
35027;DHT22;60696;51.426;6.934;2022-12-20T07:54:27;10.50;99.90
35027;DHT22;60696;51.426;6.934;2022-12-20T07:56:57;10.50;99.90
35027;DHT22;60696;51.426;6.934;2022-12-20T07:59:32;10.40;99.90
35027;DHT22;60696;51.426;6.934;2022-12-20T08:02:00;10.50;99.90
35027;DHT22;60696;51.426;6.934;2022-12-20T08:04:27;10.40;99.90
35027;DHT22;60696;51.426;6.934;2022-12-20T08:06:57;10.40;99.90
35027;DHT22;60696;51.426;6.934;2022-12-20T08:09:27;10.40;99.90
35027;DHT22;60696;51.426;6.934;2022-12-20T08:11:54;10.40;99.90
35027;DHT22;60696;51.426;6.934;2022-12-20T08:14:20;10.50;99.90
35027;DHT22;60696;51.426;6.934;2022-12-20T08:16:46;10.40;99.90
35027;DHT22;60696;51.426;6.934;2022-12-20T08:19:11;10.50;99.90
35027;DHT22;60696;51.426;6.934;2022-12-20T08:21:37;10.50;99.90
35027;DHT22;60696;51.426;6.934;2022-12-20T08:24:03;10.60;99.90
35027;DHT22;60696;51.426;6.934;2022-12-20T08:26:28;10.60;99.90
35027;DHT22;60696;51.426;6.934;2022-12-20T08:28:55;10.60;99.90
35027;DHT22;60696;51.426;6.934;2022-12-20T08:31:21;10.70;99.90
35027;DHT22;60696;51.426;6.934;2022-12-20T08:33:46;10.80;99.90
35027;DHT22;60696;51.426;6.934;2022-12-20T08:36:13;10.80;99.90
35027;DHT22;60696;51.426;6.934;2022-12-20T08:38:39;10.80;99.90
35027;DHT22;60696;51.426;6.934;2022-12-20T08:41:11;10.80;99.90
35027;DHT22;60696;51.426;6.934;2022-12-20T08:43:38;10.90;99.90
35027;DHT22;60696;51.426;6.934;2022-12-20T08:46:04;10.90;99.90
35027;DHT22;60696;51.426;6.934;2022-12-20T08:48:31;11.00;99.90
35027;DHT22;60696;51.426;6.934;2022-12-20T08:51:03;11.00;99.90
35027;DHT22;60696;51.426;6.934;2022-12-20T08:53:30;11.00;99.90
35027;DHT22;60696;51.426;6.934;2022-12-20T08:56:10;11.00;99.90
35027;DHT22;60696;51.426;6.934;2022-12-20T08:58:37;11.10;99.90
35027;DHT22;60696;51.426;6.934;2022-12-20T09:01:05;11.10;99.90
35027;DHT22;60696;51.426;6.934;2022-12-20T09:03:31;11.10;99.90
35027;DHT22;60696;51.426;6.934;2022-12-20T09:05:58;11.10;99.90
35027;DHT22;60696;51.426;6.934;2022-12-20T09:08:24;11.10;99.90
35027;DHT22;60696;51.426;6.934;2022-12-20T09:10:50;11.00;99.90
35027;DHT22;60696;51.426;6.934;2022-12-20T09:13:17;11.10;99.90
35027;DHT22;60696;51.426;6.934;2022-12-20T09:15:43;11.10;99.90
35027;DHT22;60696;51.426;6.934;2022-12-20T09:18:09;11.10;99.90
35027;DHT22;60696;51.426;6.934;2022-12-20T09:20:40;11.10;99.90
35027;DHT22;60696;51.426;6.934;2022-12-20T09:23:06;11.10;99.90
35027;DHT22;60696;51.426;6.934;2022-12-20T09:25:32;11.10;99.90
35027;DHT22;60696;51.426;6.934;2022-12-20T09:27:57;11.10;99.90
35027;DHT22;60696;51.426;6.934;2022-12-20T09:30:23;11.10;99.90
35027;DHT22;60696;51.426;6.934;2022-12-20T09:32:49;11.10;99.90
35027;DHT22;60696;51.426;6.934;2022-12-20T09:35:15;11.00;99.90
35027;DHT22;60696;51.426;6.934;2022-12-20T09:37:40;11.10;99.90
35027;DHT22;60696;51.426;6.934;2022-12-20T09:40:08;11.00;99.90
35027;DHT22;60696;51.426;6.934;2022-12-20T09:42:38;11.00;99.90
35027;DHT22;60696;51.426;6.934;2022-12-20T09:45:07;11.00;99.90
35027;DHT22;60696;51.426;6.934;2022-12-20T09:47:35;11.00;99.90
35027;DHT22;60696;51.426;6.934;2022-12-20T09:50:02;11.00;99.90
35027;DHT22;60696;51.426;6.934;2022-12-20T09:52:44;11.00;99.90
35027;DHT22;60696;51.426;6.934;2022-12-20T09:55:35;11.10;99.90
35027;DHT22;60696;51.426;6.934;2022-12-20T09:58:16;11.20;99.90
35027;DHT22;60696;51.426;6.934;2022-12-20T10:00:47;11.10;99.90
35027;DHT22;60696;51.426;6.934;2022-12-20T10:03:22;11.10;99.90
35027;DHT22;60696;51.426;6.934;2022-12-20T10:05:53;11.10;99.90
35027;DHT22;60696;51.426;6.934;2022-12-20T10:08:58;11.10;99.90
35027;DHT22;60696;51.426;6.934;2022-12-20T10:11:32;11.20;99.90
35027;DHT22;60696;51.426;6.934;2022-12-20T10:14:05;11.20;99.90
35027;DHT22;60696;51.426;6.934;2022-12-20T10:16:40;11.10;99.90
35027;DHT22;60696;51.426;6.934;2022-12-20T10:22:10;11.00;99.90
35027;DHT22;60696;51.426;6.934;2022-12-20T10:24:40;11.10;99.90
35027;DHT22;60696;51.426;6.934;2022-12-20T10:27:17;11.10;99.90
35027;DHT22;60696;51.426;6.934;2022-12-20T10:29:44;11.30;99.90
35027;DHT22;60696;51.426;6.934;2022-12-20T10:32:17;11.30;99.90
35027;DHT22;60696;51.426;6.934;2022-12-20T10:34:54;11.30;99.90
35027;DHT22;60696;51.426;6.934;2022-12-20T10:37:21;11.20;99.90
35027;DHT22;60696;51.426;6.934;2022-12-20T10:39:49;11.20;99.90
35027;DHT22;60696;51.426;6.934;2022-12-20T10:42:25;11.20;99.90
35027;DHT22;60696;51.426;6.934;2022-12-20T10:44:52;11.20;99.90
35027;DHT22;60696;51.426;6.934;2022-12-20T10:47:40;11.20;99.90
35027;DHT22;60696;51.426;6.934;2022-12-20T10:52:42;11.20;99.90
35027;DHT22;60696;51.426;6.934;2022-12-20T10:55:34;11.30;99.90
35027;DHT22;60696;51.426;6.934;2022-12-20T10:58:28;11.20;99.90
35027;DHT22;60696;51.426;6.934;2022-12-20T11:01:17;11.20;99.90
35027;DHT22;60696;51.426;6.934;2022-12-20T11:04:01;11.20;99.90
35027;DHT22;60696;51.426;6.934;2022-12-20T11:06:42;11.30;99.90
35027;DHT22;60696;51.426;6.934;2022-12-20T11:09:30;11.40;99.90
35027;DHT22;60696;51.426;6.934;2022-12-20T11:14:29;11.40;99.90
35027;DHT22;60696;51.426;6.934;2022-12-20T11:16:57;11.30;99.90
35027;DHT22;60696;51.426;6.934;2022-12-20T11:19:47;11.30;99.90
35027;DHT22;60696;51.426;6.934;2022-12-20T11:28:07;11.40;99.90
35027;DHT22;60696;51.426;6.934;2022-12-20T11:34:02;11.50;99.90
35027;DHT22;60696;51.426;6.934;2022-12-20T11:42:30;11.50;99.90
35027;DHT22;60696;51.426;6.934;2022-12-20T11:48:07;11.60;99.90
35027;DHT22;60696;51.426;6.934;2022-12-20T11:51:02;11.60;99.90
35027;DHT22;60696;51.426;6.934;2022-12-20T11:53:39;11.50;99.90
35027;DHT22;60696;51.426;6.934;2022-12-20T11:56:15;11.50;99.90
35027;DHT22;60696;51.426;6.934;2022-12-20T11:58:49;11.50;99.90
35027;DHT22;60696;51.426;6.934;2022-12-20T12:01:18;11.50;99.90
35027;DHT22;60696;51.426;6.934;2022-12-20T12:04:13;11.60;99.90
35027;DHT22;60696;51.426;6.934;2022-12-20T12:06:57;11.70;99.90
35027;DHT22;60696;51.426;6.934;2022-12-20T12:09:29;11.70;99.90
35027;DHT22;60696;51.426;6.934;2022-12-20T12:12:03;11.70;99.90
35027;DHT22;60696;51.426;6.934;2022-12-20T12:14:53;11.80;99.90
35027;DHT22;60696;51.426;6.934;2022-12-20T12:20:22;11.80;99.90
35027;DHT22;60696;51.426;6.934;2022-12-20T12:22:51;11.90;99.90
35027;DHT22;60696;51.426;6.934;2022-12-20T12:25:18;11.90;99.90
35027;DHT22;60696;51.426;6.934;2022-12-20T12:27:44;12.00;99.90
35027;DHT22;60696;51.426;6.934;2022-12-20T12:30:14;12.10;99.90
35027;DHT22;60696;51.426;6.934;2022-12-20T12:32:59;12.10;99.90
35027;DHT22;60696;51.426;6.934;2022-12-20T12:35:45;12.00;99.90
35027;DHT22;60696;51.426;6.934;2022-12-20T12:38:36;12.00;99.90
35027;DHT22;60696;51.426;6.934;2022-12-20T12:43:45;12.00;99.90
35027;DHT22;60696;51.426;6.934;2022-12-20T12:48:57;12.00;99.90
35027;DHT22;60696;51.426;6.934;2022-12-20T12:51:31;12.10;99.90
35027;DHT22;60696;51.426;6.934;2022-12-20T12:54:16;12.10;99.90
35027;DHT22;60696;51.426;6.934;2022-12-20T12:56:47;12.10;99.90
35027;DHT22;60696;51.426;6.934;2022-12-20T13:05:00;11.90;99.90
35027;DHT22;60696;51.426;6.934;2022-12-20T13:07:41;11.70;99.90
35027;DHT22;60696;51.426;6.934;2022-12-20T13:17:49;11.10;99.90
35027;DHT22;60696;51.426;6.934;2022-12-20T13:20:22;11.10;99.90
35027;DHT22;60696;51.426;6.934;2022-12-20T13:25:35;10.90;99.90
35027;DHT22;60696;51.426;6.934;2022-12-20T13:33:50;10.70;99.90
35027;DHT22;60696;51.426;6.934;2022-12-20T13:36:47;10.70;99.90
35027;DHT22;60696;51.426;6.934;2022-12-20T13:41:51;10.70;99.90
35027;DHT22;60696;51.426;6.934;2022-12-20T13:44:35;10.70;99.90
35027;DHT22;60696;51.426;6.934;2022-12-20T13:47:13;10.70;99.90
35027;DHT22;60696;51.426;6.934;2022-12-20T13:49:42;10.70;99.90
35027;DHT22;60696;51.426;6.934;2022-12-20T13:52:29;10.70;99.90
35027;DHT22;60696;51.426;6.934;2022-12-20T13:55:02;10.60;99.90
35027;DHT22;60696;51.426;6.934;2022-12-20T13:57:30;10.50;99.90
35027;DHT22;60696;51.426;6.934;2022-12-20T14:00:03;10.50;99.90
35027;DHT22;60696;51.426;6.934;2022-12-20T14:02:34;10.40;99.90
35027;DHT22;60696;51.426;6.934;2022-12-20T14:05:13;10.40;99.90
35027;DHT22;60696;51.426;6.934;2022-12-20T14:07:40;10.40;99.90
35027;DHT22;60696;51.426;6.934;2022-12-20T14:10:21;10.40;99.90
35027;DHT22;60696;51.426;6.934;2022-12-20T14:12:51;10.40;99.90
35027;DHT22;60696;51.426;6.934;2022-12-20T14:15:29;10.40;99.90
35027;DHT22;60696;51.426;6.934;2022-12-20T14:17:55;10.30;99.90
35027;DHT22;60696;51.426;6.934;2022-12-20T14:20:24;10.30;99.90
35027;DHT22;60696;51.426;6.934;2022-12-20T14:22:55;10.30;99.90
35027;DHT22;60696;51.426;6.934;2022-12-20T14:25:45;10.30;99.90
35027;DHT22;60696;51.426;6.934;2022-12-20T14:28:38;10.30;99.90
35027;DHT22;60696;51.426;6.934;2022-12-20T14:31:06;10.30;99.90
35027;DHT22;60696;51.426;6.934;2022-12-20T14:33:40;10.30;99.90
35027;DHT22;60696;51.426;6.934;2022-12-20T14:36:26;10.30;99.90
35027;DHT22;60696;51.426;6.934;2022-12-20T14:38:52;10.40;99.90
35027;DHT22;60696;51.426;6.934;2022-12-20T14:41:38;10.30;99.90
35027;DHT22;60696;51.426;6.934;2022-12-20T14:44:15;10.40;99.90
35027;DHT22;60696;51.426;6.934;2022-12-20T14:46:52;10.40;99.90
35027;DHT22;60696;51.426;6.934;2022-12-20T14:49:30;10.30;99.90
35027;DHT22;60696;51.426;6.934;2022-12-20T15:00:22;10.20;99.90
35027;DHT22;60696;51.426;6.934;2022-12-20T15:08:31;10.30;99.90
35027;DHT22;60696;51.426;6.934;2022-12-20T15:13:42;10.30;99.90
35027;DHT22;60696;51.426;6.934;2022-12-20T15:16:25;10.30;99.90
35027;DHT22;60696;51.426;6.934;2022-12-20T15:18:57;10.30;99.90
35027;DHT22;60696;51.426;6.934;2022-12-20T15:21:35;10.30;99.90
35027;DHT22;60696;51.426;6.934;2022-12-20T15:24:05;10.30;99.90
35027;DHT22;60696;51.426;6.934;2022-12-20T15:26:34;10.30;99.90
35027;DHT22;60696;51.426;6.934;2022-12-20T15:29:00;10.30;99.90
35027;DHT22;60696;51.426;6.934;2022-12-20T15:31:26;10.30;99.90
35027;DHT22;60696;51.426;6.934;2022-12-20T15:33:53;10.30;99.90
35027;DHT22;60696;51.426;6.934;2022-12-20T15:36:25;10.30;99.90
35027;DHT22;60696;51.426;6.934;2022-12-20T15:38:55;10.20;99.90
35027;DHT22;60696;51.426;6.934;2022-12-20T15:41:24;10.30;99.90
35027;DHT22;60696;51.426;6.934;2022-12-20T15:43:53;10.30;99.90
35027;DHT22;60696;51.426;6.934;2022-12-20T15:46:19;10.30;99.90
35027;DHT22;60696;51.426;6.934;2022-12-20T15:48:44;10.30;99.90
35027;DHT22;60696;51.426;6.934;2022-12-20T15:51:15;10.40;99.90
35027;DHT22;60696;51.426;6.934;2022-12-20T15:53:41;10.40;99.90
35027;DHT22;60696;51.426;6.934;2022-12-20T15:56:16;10.40;99.90
35027;DHT22;60696;51.426;6.934;2022-12-20T15:58:42;10.40;99.90
35027;DHT22;60696;51.426;6.934;2022-12-20T16:01:11;10.40;99.90
35027;DHT22;60696;51.426;6.934;2022-12-20T16:03:37;10.40;99.90
35027;DHT22;60696;51.426;6.934;2022-12-20T16:06:03;10.40;99.90
35027;DHT22;60696;51.426;6.934;2022-12-20T16:08:29;10.40;99.90
35027;DHT22;60696;51.426;6.934;2022-12-20T16:10:55;10.30;99.90
35027;DHT22;60696;51.426;6.934;2022-12-20T16:13:23;10.40;99.90
35027;DHT22;60696;51.426;6.934;2022-12-20T16:15:49;10.40;99.90
35027;DHT22;60696;51.426;6.934;2022-12-20T16:18:15;10.40;99.90
35027;DHT22;60696;51.426;6.934;2022-12-20T16:20:41;10.50;99.90
35027;DHT22;60696;51.426;6.934;2022-12-20T16:23:17;10.50;99.90
35027;DHT22;60696;51.426;6.934;2022-12-20T16:25:43;10.50;99.90
35027;DHT22;60696;51.426;6.934;2022-12-20T16:28:09;10.50;99.90
35027;DHT22;60696;51.426;6.934;2022-12-20T16:30:35;10.40;99.90
35027;DHT22;60696;51.426;6.934;2022-12-20T16:33:00;10.40;99.90
35027;DHT22;60696;51.426;6.934;2022-12-20T16:35:32;10.50;99.90
35027;DHT22;60696;51.426;6.934;2022-12-20T16:37:58;10.40;99.90
35027;DHT22;60696;51.426;6.934;2022-12-20T16:40:29;10.40;99.90
35027;DHT22;60696;51.426;6.934;2022-12-20T16:42:56;10.40;99.90
35027;DHT22;60696;51.426;6.934;2022-12-20T16:45:24;10.30;99.90
35027;DHT22;60696;51.426;6.934;2022-12-20T16:47:50;10.40;99.90
35027;DHT22;60696;51.426;6.934;2022-12-20T16:50:18;10.40;99.90
35027;DHT22;60696;51.426;6.934;2022-12-20T16:52:44;10.40;99.90
35027;DHT22;60696;51.426;6.934;2022-12-20T16:55:25;10.40;99.90
35027;DHT22;60696;51.426;6.934;2022-12-20T16:57:52;10.40;99.90
35027;DHT22;60696;51.426;6.934;2022-12-20T17:00:23;10.40;99.90
35027;DHT22;60696;51.426;6.934;2022-12-20T17:02:50;10.40;99.90
35027;DHT22;60696;51.426;6.934;2022-12-20T17:05:26;10.50;99.90
35027;DHT22;60696;51.426;6.934;2022-12-20T17:07:53;10.40;99.90
35027;DHT22;60696;51.426;6.934;2022-12-20T17:10:19;10.40;99.90
35027;DHT22;60696;51.426;6.934;2022-12-20T17:12:45;10.40;99.90
35027;DHT22;60696;51.426;6.934;2022-12-20T17:15:22;10.40;99.90